sensor_id;sensor_type;location;lat;lon;timestamp;temperature;humidity
46926;DHT22;32667;48.248;-1.700;2022-12-05T00:03:50;6.80;77.00
46926;DHT22;32667;48.248;-1.700;2022-12-05T00:06:16;6.80;77.00
46926;DHT22;32667;48.248;-1.700;2022-12-05T00:08:42;6.80;77.00
46926;DHT22;32667;48.248;-1.700;2022-12-05T00:11:13;6.80;77.00
46926;DHT22;32667;48.248;-1.700;2022-12-05T00:13:39;6.90;77.00
46926;DHT22;32667;48.248;-1.700;2022-12-05T00:16:11;6.90;77.00
46926;DHT22;32667;48.248;-1.700;2022-12-05T00:18:37;6.90;77.00
46926;DHT22;32667;48.248;-1.700;2022-12-05T00:21:03;6.90;76.90
46926;DHT22;32667;48.248;-1.700;2022-12-05T00:23:29;6.90;77.00
46926;DHT22;32667;48.248;-1.700;2022-12-05T00:25:55;6.90;77.00
46926;DHT22;32667;48.248;-1.700;2022-12-05T00:28:21;6.90;77.00
46926;DHT22;32667;48.248;-1.700;2022-12-05T00:30:47;6.80;77.00
46926;DHT22;32667;48.248;-1.700;2022-12-05T00:33:13;6.80;77.00
46926;DHT22;32667;48.248;-1.700;2022-12-05T00:35:38;6.80;77.10
46926;DHT22;32667;48.248;-1.700;2022-12-05T00:38:04;6.80;77.10
46926;DHT22;32667;48.248;-1.700;2022-12-05T00:40:30;6.80;77.10
46926;DHT22;32667;48.248;-1.700;2022-12-05T00:42:55;6.80;77.10
46926;DHT22;32667;48.248;-1.700;2022-12-05T00:45:21;6.80;77.00
46926;DHT22;32667;48.248;-1.700;2022-12-05T00:47:47;6.80;77.00
46926;DHT22;32667;48.248;-1.700;2022-12-05T00:50:13;6.80;77.00
46926;DHT22;32667;48.248;-1.700;2022-12-05T00:52:38;6.90;77.00
46926;DHT22;32667;48.248;-1.700;2022-12-05T00:55:04;6.90;77.00
46926;DHT22;32667;48.248;-1.700;2022-12-05T00:57:31;6.90;77.00
46926;DHT22;32667;48.248;-1.700;2022-12-05T00:59:56;6.90;77.00
46926;DHT22;32667;48.248;-1.700;2022-12-05T01:02:22;6.90;77.60
46926;DHT22;32667;48.248;-1.700;2022-12-05T01:04:48;6.80;77.00
46926;DHT22;32667;48.248;-1.700;2022-12-05T01:07:14;6.80;77.00
46926;DHT22;32667;48.248;-1.700;2022-12-05T01:09:39;6.80;77.10
46926;DHT22;32667;48.248;-1.700;2022-12-05T01:12:05;6.80;77.20
46926;DHT22;32667;48.248;-1.700;2022-12-05T01:14:31;6.90;77.20
46926;DHT22;32667;48.248;-1.700;2022-12-05T01:16:57;6.90;77.10
46926;DHT22;32667;48.248;-1.700;2022-12-05T01:19:26;6.90;77.10
46926;DHT22;32667;48.248;-1.700;2022-12-05T01:21:53;6.90;77.10
46926;DHT22;32667;48.248;-1.700;2022-12-05T01:24:19;6.90;77.10
46926;DHT22;32667;48.248;-1.700;2022-12-05T01:26:45;6.90;77.00
46926;DHT22;32667;48.248;-1.700;2022-12-05T01:29:13;6.90;77.00
46926;DHT22;32667;48.248;-1.700;2022-12-05T01:31:39;6.90;77.00
46926;DHT22;32667;48.248;-1.700;2022-12-05T01:34:09;6.90;77.10
46926;DHT22;32667;48.248;-1.700;2022-12-05T01:36:35;6.90;77.20
46926;DHT22;32667;48.248;-1.700;2022-12-05T01:39:02;6.90;77.20
46926;DHT22;32667;48.248;-1.700;2022-12-05T01:41:30;6.90;77.20
46926;DHT22;32667;48.248;-1.700;2022-12-05T01:46:36;6.80;77.30
46926;DHT22;32667;48.248;-1.700;2022-12-05T01:49:25;6.80;77.30
46926;DHT22;32667;48.248;-1.700;2022-12-05T01:51:53;6.80;77.30
46926;DHT22;32667;48.248;-1.700;2022-12-05T01:54:21;6.80;77.20
46926;DHT22;32667;48.248;-1.700;2022-12-05T01:57:05;6.80;77.30
46926;DHT22;32667;48.248;-1.700;2022-12-05T01:59:33;6.80;77.30
46926;DHT22;32667;48.248;-1.700;2022-12-05T02:02:00;6.80;77.40
46926;DHT22;32667;48.248;-1.700;2022-12-05T02:04:27;6.80;77.40
46926;DHT22;32667;48.248;-1.700;2022-12-05T02:06:53;6.80;77.40
46926;DHT22;32667;48.248;-1.700;2022-12-05T02:09:19;6.70;77.40
46926;DHT22;32667;48.248;-1.700;2022-12-05T02:11:53;6.70;77.40
46926;DHT22;32667;48.248;-1.700;2022-12-05T02:25:49;6.70;77.40
46926;DHT22;32667;48.248;-1.700;2022-12-05T02:31:16;6.70;77.40
46926;DHT22;32667;48.248;-1.700;2022-12-05T02:37:21;6.60;77.40
46926;DHT22;32667;48.248;-1.700;2022-12-05T02:39:34;6.60;77.40
46926;DHT22;32667;48.248;-1.700;2022-12-05T02:47:04;6.60;77.40
46926;DHT22;32667;48.248;-1.700;2022-12-05T02:49:34;6.70;77.30
46926;DHT22;32667;48.248;-1.700;2022-12-05T02:52:02;6.60;77.20
46926;DHT22;32667;48.248;-1.700;2022-12-05T02:54:32;6.70;77.30
46926;DHT22;32667;48.248;-1.700;2022-12-05T02:57:00;6.70;77.30
46926;DHT22;32667;48.248;-1.700;2022-12-05T02:59:26;6.70;77.20
46926;DHT22;32667;48.248;-1.700;2022-12-05T03:01:52;6.70;77.20
46926;DHT22;32667;48.248;-1.700;2022-12-05T03:04:20;6.70;77.20
46926;DHT22;32667;48.248;-1.700;2022-12-05T03:06:50;6.70;77.20
46926;DHT22;32667;48.248;-1.700;2022-12-05T03:09:28;6.70;77.20
46926;DHT22;32667;48.248;-1.700;2022-12-05T03:14:36;6.70;77.20
46926;DHT22;32667;48.248;-1.700;2022-12-05T03:17:08;6.70;77.20
46926;DHT22;32667;48.248;-1.700;2022-12-05T03:22:35;6.70;77.20
46926;DHT22;32667;48.248;-1.700;2022-12-05T03:24:59;6.60;77.20
46926;DHT22;32667;48.248;-1.700;2022-12-05T03:27:42;6.60;77.20
46926;DHT22;32667;48.248;-1.700;2022-12-05T03:30:13;6.60;77.20
46926;DHT22;32667;48.248;-1.700;2022-12-05T03:35:41;6.60;77.30
46926;DHT22;32667;48.248;-1.700;2022-12-05T03:38:24;6.70;77.30
46926;DHT22;32667;48.248;-1.700;2022-12-05T03:41:52;6.60;77.20
46926;DHT22;32667;48.248;-1.700;2022-12-05T03:44:06;6.60;77.20
46926;DHT22;32667;48.248;-1.700;2022-12-05T03:49:22;6.60;77.20
46926;DHT22;32667;48.248;-1.700;2022-12-05T03:51:57;6.60;77.20
46926;DHT22;32667;48.248;-1.700;2022-12-05T03:54:36;6.60;77.20
46926;DHT22;32667;48.248;-1.700;2022-12-05T04:02:29;6.70;77.20
46926;DHT22;32667;48.248;-1.700;2022-12-05T04:05:09;6.70;77.20
46926;DHT22;32667;48.248;-1.700;2022-12-05T04:07:37;6.70;77.20
46926;DHT22;32667;48.248;-1.700;2022-12-05T04:10:17;6.70;77.20
46926;DHT22;32667;48.248;-1.700;2022-12-05T04:12:45;6.70;77.20
46926;DHT22;32667;48.248;-1.700;2022-12-05T04:15:16;6.70;77.10
46926;DHT22;32667;48.248;-1.700;2022-12-05T04:17:59;6.70;77.20
46926;DHT22;32667;48.248;-1.700;2022-12-05T04:20:32;6.70;77.20
46926;DHT22;32667;48.248;-1.700;2022-12-05T04:23:18;6.70;77.20
46926;DHT22;32667;48.248;-1.700;2022-12-05T04:28:27;6.70;77.10
46926;DHT22;32667;48.248;-1.700;2022-12-05T04:31:10;6.70;77.10
46926;DHT22;32667;48.248;-1.700;2022-12-05T04:33:43;6.70;77.10
46926;DHT22;32667;48.248;-1.700;2022-12-05T04:41:18;6.70;77.10
46926;DHT22;32667;48.248;-1.700;2022-12-05T04:43:46;6.70;77.10
46926;DHT22;32667;48.248;-1.700;2022-12-05T04:46:15;6.70;77.20
46926;DHT22;32667;48.248;-1.700;2022-12-05T04:48:45;6.70;77.20
46926;DHT22;32667;48.248;-1.700;2022-12-05T04:51:17;6.70;77.30
46926;DHT22;32667;48.248;-1.700;2022-12-05T04:53:48;6.70;77.30
46926;DHT22;32667;48.248;-1.700;2022-12-05T04:56:18;6.70;77.30
46926;DHT22;32667;48.248;-1.700;2022-12-05T04:58:46;6.70;77.20
46926;DHT22;32667;48.248;-1.700;2022-12-05T05:01:21;6.70;77.20
46926;DHT22;32667;48.248;-1.700;2022-12-05T05:06:16;6.60;77.20
46926;DHT22;32667;48.248;-1.700;2022-12-05T05:08:49;6.70;77.20
46926;DHT22;32667;48.248;-1.700;2022-12-05T05:11:22;6.70;77.10
46926;DHT22;32667;48.248;-1.700;2022-12-05T05:13:48;6.70;77.10
46926;DHT22;32667;48.248;-1.700;2022-12-05T05:16:37;6.70;77.70
46926;DHT22;32667;48.248;-1.700;2022-12-05T05:19:01;6.70;77.10
46926;DHT22;32667;48.248;-1.700;2022-12-05T05:21:29;6.70;77.10
46926;DHT22;32667;48.248;-1.700;2022-12-05T05:23:56;6.70;77.10
46926;DHT22;32667;48.248;-1.700;2022-12-05T05:26:23;6.70;77.10
46926;DHT22;32667;48.248;-1.700;2022-12-05T05:28:50;6.70;77.00
46926;DHT22;32667;48.248;-1.700;2022-12-05T05:31:17;6.70;77.00
46926;DHT22;32667;48.248;-1.700;2022-12-05T05:33:47;6.70;77.00
46926;DHT22;32667;48.248;-1.700;2022-12-05T05:36:14;6.70;77.00
46926;DHT22;32667;48.248;-1.700;2022-12-05T05:38:45;6.70;77.00
46926;DHT22;32667;48.248;-1.700;2022-12-05T05:41:20;6.70;77.00
46926;DHT22;32667;48.248;-1.700;2022-12-05T05:43:49;6.60;77.00
46926;DHT22;32667;48.248;-1.700;2022-12-05T05:46:18;6.60;77.00
46926;DHT22;32667;48.248;-1.700;2022-12-05T05:48:44;6.60;77.10
46926;DHT22;32667;48.248;-1.700;2022-12-05T05:51:11;6.60;77.10
46926;DHT22;32667;48.248;-1.700;2022-12-05T05:53:39;6.60;77.10
46926;DHT22;32667;48.248;-1.700;2022-12-05T05:56:08;6.60;77.10
46926;DHT22;32667;48.248;-1.700;2022-12-05T05:58:34;6.50;77.10
46926;DHT22;32667;48.248;-1.700;2022-12-05T06:01:05;6.50;77.10
46926;DHT22;32667;48.248;-1.700;2022-12-05T06:03:31;6.50;77.10
46926;DHT22;32667;48.248;-1.700;2022-12-05T06:06:00;6.50;77.10
46926;DHT22;32667;48.248;-1.700;2022-12-05T06:08:30;6.60;77.10
46926;DHT22;32667;48.248;-1.700;2022-12-05T06:10:57;6.60;77.00
46926;DHT22;32667;48.248;-1.700;2022-12-05T06:13:22;6.60;77.00
46926;DHT22;32667;48.248;-1.700;2022-12-05T06:15:48;6.50;77.00
46926;DHT22;32667;48.248;-1.700;2022-12-05T06:18:16;6.50;77.00
46926;DHT22;32667;48.248;-1.700;2022-12-05T06:20:54;6.50;77.00
46926;DHT22;32667;48.248;-1.700;2022-12-05T06:23:29;6.60;77.10
46926;DHT22;32667;48.248;-1.700;2022-12-05T06:25:55;6.60;77.10
46926;DHT22;32667;48.248;-1.700;2022-12-05T06:28:23;6.60;77.00
46926;DHT22;32667;48.248;-1.700;2022-12-05T06:30:49;6.60;76.90
46926;DHT22;32667;48.248;-1.700;2022-12-05T06:33:15;6.60;76.90
46926;DHT22;32667;48.248;-1.700;2022-12-05T06:35:41;6.60;76.90
46926;DHT22;32667;48.248;-1.700;2022-12-05T06:38:08;6.50;76.90
46926;DHT22;32667;48.248;-1.700;2022-12-05T06:40:34;6.50;76.90
46926;DHT22;32667;48.248;-1.700;2022-12-05T06:43:03;6.50;77.00
46926;DHT22;32667;48.248;-1.700;2022-12-05T06:45:29;6.50;77.00
46926;DHT22;32667;48.248;-1.700;2022-12-05T06:47:58;6.50;77.00
46926;DHT22;32667;48.248;-1.700;2022-12-05T06:50:23;6.60;77.00
46926;DHT22;32667;48.248;-1.700;2022-12-05T06:52:50;6.60;77.00
46926;DHT22;32667;48.248;-1.700;2022-12-05T06:55:16;6.60;77.00
46926;DHT22;32667;48.248;-1.700;2022-12-05T06:57:42;6.60;77.00
46926;DHT22;32667;48.248;-1.700;2022-12-05T07:00:08;6.60;77.00
46926;DHT22;32667;48.248;-1.700;2022-12-05T07:02:52;6.60;77.00
46926;DHT22;32667;48.248;-1.700;2022-12-05T07:05:19;6.70;77.00
46926;DHT22;32667;48.248;-1.700;2022-12-05T07:07:45;6.70;77.00
46926;DHT22;32667;48.248;-1.700;2022-12-05T07:10:11;6.70;76.90
46926;DHT22;32667;48.248;-1.700;2022-12-05T07:12:37;6.70;76.90
46926;DHT22;32667;48.248;-1.700;2022-12-05T07:15:05;6.70;76.90
46926;DHT22;32667;48.248;-1.700;2022-12-05T07:17:35;6.70;77.00
46926;DHT22;32667;48.248;-1.700;2022-12-05T07:20:02;6.70;76.90
46926;DHT22;32667;48.248;-1.700;2022-12-05T07:22:27;6.70;76.90
46926;DHT22;32667;48.248;-1.700;2022-12-05T07:24:55;6.70;77.00
46926;DHT22;32667;48.248;-1.700;2022-12-05T07:27:21;6.70;77.00
46926;DHT22;32667;48.248;-1.700;2022-12-05T07:29:47;6.70;77.00
46926;DHT22;32667;48.248;-1.700;2022-12-05T07:32:13;6.70;77.00
46926;DHT22;32667;48.248;-1.700;2022-12-05T07:34:39;6.70;77.00
46926;DHT22;32667;48.248;-1.700;2022-12-05T07:37:06;6.70;77.10
46926;DHT22;32667;48.248;-1.700;2022-12-05T07:39:32;6.70;77.10
46926;DHT22;32667;48.248;-1.700;2022-12-05T07:41:58;6.70;77.10
46926;DHT22;32667;48.248;-1.700;2022-12-05T07:44:24;6.70;77.00
46926;DHT22;32667;48.248;-1.700;2022-12-05T07:46:49;6.70;77.00
46926;DHT22;32667;48.248;-1.700;2022-12-05T07:49:15;6.70;77.00
46926;DHT22;32667;48.248;-1.700;2022-12-05T07:51:41;6.70;77.00
46926;DHT22;32667;48.248;-1.700;2022-12-05T07:54:09;6.70;77.10
46926;DHT22;32667;48.248;-1.700;2022-12-05T07:56:35;6.70;77.00
46926;DHT22;32667;48.248;-1.700;2022-12-05T07:59:01;6.70;77.00
46926;DHT22;32667;48.248;-1.700;2022-12-05T08:01:27;6.70;77.00
46926;DHT22;32667;48.248;-1.700;2022-12-05T08:03:55;6.70;77.00
46926;DHT22;32667;48.248;-1.700;2022-12-05T08:06:23;6.80;77.00
46926;DHT22;32667;48.248;-1.700;2022-12-05T08:08:50;6.80;77.00
46926;DHT22;32667;48.248;-1.700;2022-12-05T08:11:19;6.80;77.00
46926;DHT22;32667;48.248;-1.700;2022-12-05T08:13:45;6.80;77.00
46926;DHT22;32667;48.248;-1.700;2022-12-05T08:16:13;6.80;77.10
46926;DHT22;32667;48.248;-1.700;2022-12-05T08:18:39;6.80;77.10
46926;DHT22;32667;48.248;-1.700;2022-12-05T08:21:11;6.80;77.00
46926;DHT22;32667;48.248;-1.700;2022-12-05T08:23:38;6.70;77.00
46926;DHT22;32667;48.248;-1.700;2022-12-05T08:26:07;6.60;77.30
46926;DHT22;32667;48.248;-1.700;2022-12-05T08:28:34;6.60;77.50
46926;DHT22;32667;48.248;-1.700;2022-12-05T08:31:05;6.60;77.50
46926;DHT22;32667;48.248;-1.700;2022-12-05T08:33:31;6.70;77.50
46926;DHT22;32667;48.248;-1.700;2022-12-05T08:36:00;6.70;77.40
46926;DHT22;32667;48.248;-1.700;2022-12-05T08:38:27;6.70;77.30
46926;DHT22;32667;48.248;-1.700;2022-12-05T08:40:52;6.80;77.30
46926;DHT22;32667;48.248;-1.700;2022-12-05T08:43:18;6.80;77.20
46926;DHT22;32667;48.248;-1.700;2022-12-05T08:45:51;6.90;77.20
46926;DHT22;32667;48.248;-1.700;2022-12-05T08:48:17;6.90;77.20
46926;DHT22;32667;48.248;-1.700;2022-12-05T08:50:46;6.90;77.10
46926;DHT22;32667;48.248;-1.700;2022-12-05T08:53:11;6.90;77.10
46926;DHT22;32667;48.248;-1.700;2022-12-05T08:55:38;7.00;77.10
46926;DHT22;32667;48.248;-1.700;2022-12-05T08:58:04;7.00;77.00
46926;DHT22;32667;48.248;-1.700;2022-12-05T09:00:29;6.90;76.80
46926;DHT22;32667;48.248;-1.700;2022-12-05T09:02:56;6.80;77.00
46926;DHT22;32667;48.248;-1.700;2022-12-05T09:05:22;6.80;77.40
46926;DHT22;32667;48.248;-1.700;2022-12-05T09:07:48;6.80;77.50
46926;DHT22;32667;48.248;-1.700;2022-12-05T09:10:14;6.80;77.40
46926;DHT22;32667;48.248;-1.700;2022-12-05T09:12:43;6.80;77.40
46926;DHT22;32667;48.248;-1.700;2022-12-05T10:49:15;7.20;76.30
46926;DHT22;32667;48.248;-1.700;2022-12-05T10:58:58;7.10;76.60
46926;DHT22;32667;48.248;-1.700;2022-12-05T11:25:23;7.40;76.20
46926;DHT22;32667;48.248;-1.700;2022-12-05T11:27:49;7.40;76.10
46926;DHT22;32667;48.248;-1.700;2022-12-05T11:30:20;7.50;76.20
46926;DHT22;32667;48.248;-1.700;2022-12-05T11:32:46;7.50;76.20
46926;DHT22;32667;48.248;-1.700;2022-12-05T11:37:49;7.60;76.20
46926;DHT22;32667;48.248;-1.700;2022-12-05T11:51:25;7.60;76.50
46926;DHT22;32667;48.248;-1.700;2022-12-05T11:54:16;7.50;76.50
46926;DHT22;32667;48.248;-1.700;2022-12-05T11:56:53;7.50;76.60
46926;DHT22;32667;48.248;-1.700;2022-12-05T12:26:18;8.00;76.20
46926;DHT22;32667;48.248;-1.700;2022-12-05T12:32:24;8.00;76.00
46926;DHT22;32667;48.248;-1.700;2022-12-05T12:37:42;8.10;76.00
46926;DHT22;32667;48.248;-1.700;2022-12-05T12:40:20;8.10;75.90
46926;DHT22;32667;48.248;-1.700;2022-12-05T12:45:42;8.10;76.00
46926;DHT22;32667;48.248;-1.700;2022-12-05T12:48:36;8.00;76.00
46926;DHT22;32667;48.248;-1.700;2022-12-05T12:51:12;8.00;76.10
46926;DHT22;32667;48.248;-1.700;2022-12-05T12:53:45;8.00;76.20
46926;DHT22;32667;48.248;-1.700;2022-12-05T12:58:57;7.90;76.30
46926;DHT22;32667;48.248;-1.700;2022-12-05T13:01:45;7.80;76.30
46926;DHT22;32667;48.248;-1.700;2022-12-05T13:04:15;7.80;76.30
46926;DHT22;32667;48.248;-1.700;2022-12-05T13:07:12;7.80;76.30
46926;DHT22;32667;48.248;-1.700;2022-12-05T13:09:49;7.80;76.40
46926;DHT22;32667;48.248;-1.700;2022-12-05T13:12:32;7.80;76.50
46926;DHT22;32667;48.248;-1.700;2022-12-05T13:15:05;7.80;76.40
46926;DHT22;32667;48.248;-1.700;2022-12-05T13:17:35;7.80;76.30
46926;DHT22;32667;48.248;-1.700;2022-12-05T13:20:04;7.80;76.30
46926;DHT22;32667;48.248;-1.700;2022-12-05T13:22:30;7.80;76.20
46926;DHT22;32667;48.248;-1.700;2022-12-05T13:24:56;7.90;76.30
46926;DHT22;32667;48.248;-1.700;2022-12-05T13:27:24;7.90;76.20
46926;DHT22;32667;48.248;-1.700;2022-12-05T13:30:00;7.90;76.20
46926;DHT22;32667;48.248;-1.700;2022-12-05T13:32:30;7.90;76.20
46926;DHT22;32667;48.248;-1.700;2022-12-05T13:37:33;8.00;76.20
46926;DHT22;32667;48.248;-1.700;2022-12-05T13:40:39;8.00;76.20
46926;DHT22;32667;48.248;-1.700;2022-12-05T13:43:28;8.00;76.20
46926;DHT22;32667;48.248;-1.700;2022-12-05T13:46:22;8.00;76.10
46926;DHT22;32667;48.248;-1.700;2022-12-05T13:48:58;8.00;76.10
46926;DHT22;32667;48.248;-1.700;2022-12-05T13:51:36;8.00;76.20
46926;DHT22;32667;48.248;-1.700;2022-12-05T13:56:58;7.90;76.30
46926;DHT22;32667;48.248;-1.700;2022-12-05T14:10:22;7.70;76.80
46926;DHT22;32667;48.248;-1.700;2022-12-05T14:12:59;7.70;76.90
46926;DHT22;32667;48.248;-1.700;2022-12-05T14:15:36;7.80;77.00
46926;DHT22;32667;48.248;-1.700;2022-12-05T14:18:23;7.80;76.80
46926;DHT22;32667;48.248;-1.700;2022-12-05T14:21:16;7.80;76.80
46926;DHT22;32667;48.248;-1.700;2022-12-05T14:24:06;7.90;76.70
46926;DHT22;32667;48.248;-1.700;2022-12-05T14:30:04;8.00;76.60
46926;DHT22;32667;48.248;-1.700;2022-12-05T14:32:41;8.10;76.40
46926;DHT22;32667;48.248;-1.700;2022-12-05T14:35:27;8.10;76.30
46926;DHT22;32667;48.248;-1.700;2022-12-05T14:38:01;8.20;76.20
46926;DHT22;32667;48.248;-1.700;2022-12-05T14:40:37;8.20;76.10
46926;DHT22;32667;48.248;-1.700;2022-12-05T14:48:32;8.30;75.90
46926;DHT22;32667;48.248;-1.700;2022-12-05T14:51:00;8.30;75.90
46926;DHT22;32667;48.248;-1.700;2022-12-05T14:53:30;8.30;76.00
46926;DHT22;32667;48.248;-1.700;2022-12-05T14:58:51;8.20;76.20
46926;DHT22;32667;48.248;-1.700;2022-12-05T15:04:07;8.20;76.10
46926;DHT22;32667;48.248;-1.700;2022-12-05T15:06:41;8.20;76.10
46926;DHT22;32667;48.248;-1.700;2022-12-05T15:11:52;8.20;76.10
46926;DHT22;32667;48.248;-1.700;2022-12-05T15:14:24;8.20;76.20
46926;DHT22;32667;48.248;-1.700;2022-12-05T15:16:54;8.20;76.20
46926;DHT22;32667;48.248;-1.700;2022-12-05T15:19:32;8.20;76.90
46926;DHT22;32667;48.248;-1.700;2022-12-05T15:22:05;8.20;76.40
46926;DHT22;32667;48.248;-1.700;2022-12-05T15:24:41;8.20;76.40
46926;DHT22;32667;48.248;-1.700;2022-12-05T15:27:10;8.10;76.40
46926;DHT22;32667;48.248;-1.700;2022-12-05T15:29:37;8.10;76.50
46926;DHT22;32667;48.248;-1.700;2022-12-05T15:34:46;8.10;76.60
46926;DHT22;32667;48.248;-1.700;2022-12-05T15:37:18;8.10;76.60
46926;DHT22;32667;48.248;-1.700;2022-12-05T15:40:06;8.00;76.50
46926;DHT22;32667;48.248;-1.700;2022-12-05T15:42:41;7.90;76.70
46926;DHT22;32667;48.248;-1.700;2022-12-05T15:47:40;7.90;77.00
46926;DHT22;32667;48.248;-1.700;2022-12-05T15:50:15;7.90;76.90
46926;DHT22;32667;48.248;-1.700;2022-12-05T15:52:48;7.90;77.00
46926;DHT22;32667;48.248;-1.700;2022-12-05T15:55:28;7.90;76.90
46926;DHT22;32667;48.248;-1.700;2022-12-05T15:58:04;7.90;76.80
46926;DHT22;32667;48.248;-1.700;2022-12-05T16:00:34;7.90;76.70
46926;DHT22;32667;48.248;-1.700;2022-12-05T16:03:12;8.00;76.80
46926;DHT22;32667;48.248;-1.700;2022-12-05T16:06:44;8.00;76.70
46926;DHT22;32667;48.248;-1.700;2022-12-05T16:08:46;8.00;76.70
46926;DHT22;32667;48.248;-1.700;2022-12-05T16:11:16;7.90;76.70
46926;DHT22;32667;48.248;-1.700;2022-12-05T16:13:56;7.90;76.70
46926;DHT22;32667;48.248;-1.700;2022-12-05T16:16:28;8.00;77.30
46926;DHT22;32667;48.248;-1.700;2022-12-05T16:18:58;7.90;76.70
46926;DHT22;32667;48.248;-1.700;2022-12-05T16:21:36;7.90;76.70
46926;DHT22;32667;48.248;-1.700;2022-12-05T16:24:20;7.90;76.60
46926;DHT22;32667;48.248;-1.700;2022-12-05T16:27:16;7.80;76.70
46926;DHT22;32667;48.248;-1.700;2022-12-05T16:29:43;7.80;76.90
46926;DHT22;32667;48.248;-1.700;2022-12-05T16:32:22;7.70;77.00
46926;DHT22;32667;48.248;-1.700;2022-12-05T16:34:48;7.80;77.10
46926;DHT22;32667;48.248;-1.700;2022-12-05T16:37:23;7.80;77.00
46926;DHT22;32667;48.248;-1.700;2022-12-05T16:39:50;7.80;76.90
46926;DHT22;32667;48.248;-1.700;2022-12-05T16:42:27;7.80;76.90
46926;DHT22;32667;48.248;-1.700;2022-12-05T16:45:00;7.80;76.90
46926;DHT22;32667;48.248;-1.700;2022-12-05T16:50:33;7.70;76.80
46926;DHT22;32667;48.248;-1.700;2022-12-05T16:53:01;7.70;76.80
46926;DHT22;32667;48.248;-1.700;2022-12-05T16:55:27;7.70;76.90
46926;DHT22;32667;48.248;-1.700;2022-12-05T16:57:53;7.70;76.90
46926;DHT22;32667;48.248;-1.700;2022-12-05T17:00:19;7.70;76.90
46926;DHT22;32667;48.248;-1.700;2022-12-05T17:02:45;7.70;76.90
46926;DHT22;32667;48.248;-1.700;2022-12-05T17:05:14;7.60;76.80
46926;DHT22;32667;48.248;-1.700;2022-12-05T17:07:41;7.60;76.90
46926;DHT22;32667;48.248;-1.700;2022-12-05T17:10:43;7.60;76.90
46926;DHT22;32667;48.248;-1.700;2022-12-05T17:13:17;7.60;76.90
46926;DHT22;32667;48.248;-1.700;2022-12-05T17:15:43;7.50;77.00
46926;DHT22;32667;48.248;-1.700;2022-12-05T17:18:13;7.60;77.10
46926;DHT22;32667;48.248;-1.700;2022-12-05T17:20:42;7.60;77.00
46926;DHT22;32667;48.248;-1.700;2022-12-05T17:23:12;7.60;76.90
46926;DHT22;32667;48.248;-1.700;2022-12-05T17:25:42;7.60;76.80
46926;DHT22;32667;48.248;-1.700;2022-12-05T17:28:09;7.60;76.80
46926;DHT22;32667;48.248;-1.700;2022-12-05T17:30:34;7.70;76.80
46926;DHT22;32667;48.248;-1.700;2022-12-05T17:33:03;7.60;76.70
46926;DHT22;32667;48.248;-1.700;2022-12-05T17:35:29;7.70;76.70
46926;DHT22;32667;48.248;-1.700;2022-12-05T17:37:55;7.60;76.60
46926;DHT22;32667;48.248;-1.700;2022-12-05T17:40:21;7.60;76.70
46926;DHT22;32667;48.248;-1.700;2022-12-05T17:42:47;7.60;76.70
46926;DHT22;32667;48.248;-1.700;2022-12-05T17:45:14;7.70;76.70
46926;DHT22;32667;48.248;-1.700;2022-12-05T17:47:41;7.70;76.60
46926;DHT22;32667;48.248;-1.700;2022-12-05T17:50:12;7.70;76.60
46926;DHT22;32667;48.248;-1.700;2022-12-05T17:52:38;7.70;76.60
46926;DHT22;32667;48.248;-1.700;2022-12-05T17:55:04;7.70;76.60
46926;DHT22;32667;48.248;-1.700;2022-12-05T17:57:31;7.70;76.60
46926;DHT22;32667;48.248;-1.700;2022-12-05T17:59:57;7.70;76.50
46926;DHT22;32667;48.248;-1.700;2022-12-05T18:02:22;7.70;76.50
46926;DHT22;32667;48.248;-1.700;2022-12-05T18:04:48;7.70;76.50
46926;DHT22;32667;48.248;-1.700;2022-12-05T18:07:14;7.60;76.40
46926;DHT22;32667;48.248;-1.700;2022-12-05T18:09:40;7.60;76.50
46926;DHT22;32667;48.248;-1.700;2022-12-05T18:12:08;7.60;76.50
46926;DHT22;32667;48.248;-1.700;2022-12-05T18:14:33;7.60;76.50
46926;DHT22;32667;48.248;-1.700;2022-12-05T18:17:02;7.60;76.60
46926;DHT22;32667;48.248;-1.700;2022-12-05T18:19:28;7.60;76.50
46926;DHT22;32667;48.248;-1.700;2022-12-05T18:21:53;7.60;76.60
46926;DHT22;32667;48.248;-1.700;2022-12-05T18:24:19;7.50;76.60
46926;DHT22;32667;48.248;-1.700;2022-12-05T18:26:45;7.50;76.90
46926;DHT22;32667;48.248;-1.700;2022-12-05T18:29:11;7.50;76.90
46926;DHT22;32667;48.248;-1.700;2022-12-05T18:31:37;7.50;76.90
46926;DHT22;32667;48.248;-1.700;2022-12-05T18:34:06;7.40;76.80
46926;DHT22;32667;48.248;-1.700;2022-12-05T18:36:32;7.40;76.80
46926;DHT22;32667;48.248;-1.700;2022-12-05T18:38:57;7.30;76.80
46926;DHT22;32667;48.248;-1.700;2022-12-05T18:41:24;7.30;77.00
46926;DHT22;32667;48.248;-1.700;2022-12-05T18:43:51;7.20;77.00
46926;DHT22;32667;48.248;-1.700;2022-12-05T18:46:18;7.20;77.10
46926;DHT22;32667;48.248;-1.700;2022-12-05T18:48:44;7.10;77.10
46926;DHT22;32667;48.248;-1.700;2022-12-05T18:51:15;7.00;77.20
46926;DHT22;32667;48.248;-1.700;2022-12-05T18:53:42;7.00;77.30
46926;DHT22;32667;48.248;-1.700;2022-12-05T18:56:16;6.90;77.30
46926;DHT22;32667;48.248;-1.700;2022-12-05T18:58:42;6.90;77.30
46926;DHT22;32667;48.248;-1.700;2022-12-05T19:01:11;6.90;77.40
46926;DHT22;32667;48.248;-1.700;2022-12-05T19:03:38;6.90;77.40
46926;DHT22;32667;48.248;-1.700;2022-12-05T19:06:17;6.90;77.40
46926;DHT22;32667;48.248;-1.700;2022-12-05T19:08:44;6.90;77.40
46926;DHT22;32667;48.248;-1.700;2022-12-05T19:11:11;6.90;77.30
46926;DHT22;32667;48.248;-1.700;2022-12-05T19:13:37;6.90;77.20
46926;DHT22;32667;48.248;-1.700;2022-12-05T19:16:04;7.00;77.20
46926;DHT22;32667;48.248;-1.700;2022-12-05T19:18:30;7.00;77.10
46926;DHT22;32667;48.248;-1.700;2022-12-05T19:20:56;7.00;77.10
46926;DHT22;32667;48.248;-1.700;2022-12-05T19:23:23;7.00;77.00
46926;DHT22;32667;48.248;-1.700;2022-12-05T19:25:52;7.10;77.00
46926;DHT22;32667;48.248;-1.700;2022-12-05T19:28:18;7.00;76.90
46926;DHT22;32667;48.248;-1.700;2022-12-05T19:30:43;7.00;77.00
46926;DHT22;32667;48.248;-1.700;2022-12-05T19:33:09;7.00;77.10
46926;DHT22;32667;48.248;-1.700;2022-12-05T19:35:35;7.00;77.10
46926;DHT22;32667;48.248;-1.700;2022-12-05T19:38:01;7.00;77.20
46926;DHT22;32667;48.248;-1.700;2022-12-05T19:40:27;7.00;77.20
46926;DHT22;32667;48.248;-1.700;2022-12-05T19:42:53;7.10;77.20
46926;DHT22;32667;48.248;-1.700;2022-12-05T19:45:18;7.20;77.10
46926;DHT22;32667;48.248;-1.700;2022-12-05T19:47:44;7.20;77.10
46926;DHT22;32667;48.248;-1.700;2022-12-05T19:50:10;7.20;77.00
46926;DHT22;32667;48.248;-1.700;2022-12-05T19:52:36;7.20;77.00
46926;DHT22;32667;48.248;-1.700;2022-12-05T19:55:02;7.20;77.00
46926;DHT22;32667;48.248;-1.700;2022-12-05T19:57:28;7.20;77.10
46926;DHT22;32667;48.248;-1.700;2022-12-05T19:59:53;7.30;77.10
46926;DHT22;32667;48.248;-1.700;2022-12-05T20:02:19;7.30;77.10
46926;DHT22;32667;48.248;-1.700;2022-12-05T20:04:45;7.30;77.10
46926;DHT22;32667;48.248;-1.700;2022-12-05T20:07:12;7.30;77.10
46926;DHT22;32667;48.248;-1.700;2022-12-05T20:09:38;7.30;77.00
46926;DHT22;32667;48.248;-1.700;2022-12-05T20:12:04;7.30;77.00
46926;DHT22;32667;48.248;-1.700;2022-12-05T20:14:29;7.20;77.20
46926;DHT22;32667;48.248;-1.700;2022-12-05T20:16:55;7.20;77.50
46926;DHT22;32667;48.248;-1.700;2022-12-05T20:19:22;7.20;77.50
46926;DHT22;32667;48.248;-1.700;2022-12-05T20:21:48;7.20;77.40